createdAt,value
2023-06-17T00:00:42.672Z,79.02
2023-06-17T00:03:09.850Z,79.21
2023-06-17T00:05:37.287Z,79.58
2023-06-17T00:08:04.151Z,79.38
2023-06-17T00:10:30.759Z,79.46
2023-06-17T00:12:59.631Z,80.13
2023-06-17T00:15:26.469Z,79.47
2023-06-17T00:17:53.287Z,79.83
2023-06-17T00:20:20.158Z,80.50
2023-06-17T00:22:48.145Z,80.53
2023-06-17T00:25:14.827Z,81.01
2023-06-17T00:27:41.475Z,82.12
2023-06-17T00:30:08.737Z,81.60
2023-06-17T00:32:36.479Z,81.55
2023-06-17T00:35:06.829Z,82.23
2023-06-17T00:37:33.842Z,81.27
2023-06-17T00:40:00.787Z,81.72
2023-06-17T00:42:27.470Z,81.89
2023-06-17T00:44:54.001Z,81.66
2023-06-17T00:47:21.022Z,81.82
2023-06-17T00:49:48.386Z,81.84
2023-06-17T00:52:31.642Z,82.71
2023-06-17T00:55:02.929Z,81.99
2023-06-17T00:57:30.415Z,82.45
2023-06-17T00:59:57.328Z,82.32
2023-06-17T01:02:26.849Z,82.34
2023-06-17T01:04:55.153Z,82.63
2023-06-17T01:08:20.662Z,82.68
2023-06-17T01:11:06.900Z,82.73
2023-06-17T01:13:35.114Z,82.80
2023-06-17T01:16:03.820Z,83.33
2023-06-17T01:18:32.344Z,83.68
2023-06-17T01:21:00.283Z,83.30
2023-06-17T01:23:33.465Z,83.08
2023-06-17T01:26:02.503Z,83.89
2023-06-17T01:28:30.705Z,83.29
2023-06-17T01:30:58.141Z,83.82
2023-06-17T01:33:26.426Z,83.98
2023-06-17T01:36:06.100Z,84.75
2023-06-17T01:38:49.669Z,85.19
2023-06-17T01:41:20.458Z,85.49
2023-06-17T01:43:49.721Z,85.53
2023-06-17T01:46:17.353Z,85.75
2023-06-17T01:48:44.190Z,86.06
2023-06-17T01:51:11.118Z,86.04
2023-06-17T01:53:37.877Z,86.95
2023-06-17T01:56:04.673Z,85.49
2023-06-17T01:58:31.289Z,86.21
2023-06-17T02:00:58.428Z,86.18
2023-06-17T02:03:25.132Z,87.33
2023-06-17T02:05:51.786Z,88.00
2023-06-17T02:08:18.328Z,87.61
2023-06-17T02:10:44.888Z,87.90
2023-06-17T02:13:11.361Z,87.52
2023-06-17T02:15:39.740Z,87.07
2023-06-17T02:18:06.814Z,86.24
2023-06-17T02:20:33.429Z,86.78
2023-06-17T02:23:01.997Z,86.33
2023-06-17T02:25:28.919Z,86.60
2023-06-17T02:27:55.669Z,87.21
2023-06-17T02:30:22.835Z,87.39
2023-06-17T02:32:49.556Z,86.47
2023-06-17T02:35:16.386Z,86.21
2023-06-17T02:37:44.463Z,86.01
2023-06-17T02:40:11.738Z,86.52
2023-06-17T02:42:39.173Z,86.17
2023-06-17T02:45:07.951Z,85.35
2023-06-17T02:47:34.593Z,85.91
2023-06-17T02:50:02.198Z,85.90
2023-06-17T02:52:31.904Z,86.31
2023-06-17T02:54:58.874Z,85.94
2023-06-17T02:57:25.377Z,86.09
2023-06-17T02:59:52.131Z,85.87
2023-06-17T03:02:19.171Z,86.19
2023-06-17T03:04:46.309Z,85.70
2023-06-17T03:07:13.430Z,85.99
2023-06-17T03:09:40.057Z,86.32
2023-06-17T03:12:07.205Z,85.76
2023-06-17T03:14:34.661Z,85.94
2023-06-17T03:17:04.036Z,85.72
2023-06-17T03:19:30.834Z,85.52
2023-06-17T03:21:57.383Z,86.04
2023-06-17T03:24:26.791Z,85.90
2023-06-17T03:26:54.764Z,85.79
2023-06-17T03:29:22.068Z,85.90
2023-06-17T03:31:51.278Z,85.31
2023-06-17T03:34:17.930Z,85.78
2023-06-17T03:36:48.610Z,85.10
2023-06-17T03:39:15.520Z,84.85
2023-06-17T03:41:42.398Z,83.63
2023-06-17T03:44:09.493Z,82.02
2023-06-17T03:46:35.979Z,81.28
2023-06-17T03:49:03.425Z,82.16
2023-06-17T03:51:30.109Z,82.41
2023-06-17T03:53:56.539Z,82.55
2023-06-17T03:56:23.767Z,78.88
2023-06-17T03:58:50.305Z,77.72
2023-06-17T04:01:17.016Z,76.12
2023-06-17T04:03:45.598Z,74.15
2023-06-17T04:06:15.726Z,71.86
2023-06-17T04:08:44.959Z,68.53
2023-06-17T04:11:14.031Z,69.68
2023-06-17T04:13:40.554Z,70.03
2023-06-17T04:16:08.287Z,70.74
2023-06-17T04:18:34.889Z,67.12
2023-06-17T04:21:02.852Z,65.80
2023-06-17T04:23:31.272Z,65.03
2023-06-17T04:25:57.966Z,63.96
2023-06-17T04:28:24.823Z,64.66
2023-06-17T04:30:52.770Z,66.40
2023-06-17T04:33:19.739Z,65.30
2023-06-17T04:35:48.390Z,64.88
2023-06-17T04:38:15.732Z,64.74
2023-06-17T04:40:43.274Z,62.95
2023-06-17T04:43:11.125Z,62.74
2023-06-17T04:45:37.769Z,61.75
2023-06-17T04:48:06.995Z,64.71
2023-06-17T04:50:34.598Z,63.09
2023-06-17T04:53:05.184Z,61.54
2023-06-17T04:55:37.077Z,59.50
2023-06-17T04:58:05.691Z,55.45
2023-06-17T05:00:40.534Z,54.37
2023-06-17T05:03:08.053Z,54.53
2023-06-17T05:05:37.087Z,53.87
2023-06-17T05:08:04.274Z,51.88
2023-06-17T05:10:31.042Z,51.52
2023-06-17T05:12:57.590Z,51.90
2023-06-17T05:15:26.384Z,50.54
2023-06-17T05:17:53.415Z,48.71
2023-06-17T05:20:20.533Z,47.64
2023-06-17T05:22:47.445Z,46.98
2023-06-17T05:25:13.961Z,48.13
2023-06-17T05:27:40.626Z,46.92
2023-06-17T05:30:09.108Z,46.10
2023-06-17T05:32:36.147Z,46.71
2023-06-17T05:35:02.775Z,46.21
2023-06-17T05:37:32.961Z,45.24
2023-06-17T05:40:00.394Z,46.70
2023-06-17T05:42:27.841Z,44.93
2023-06-17T05:44:54.462Z,44.48
2023-06-17T05:47:23.719Z,44.13
2023-06-17T05:49:50.187Z,44.23
2023-06-17T05:52:17.088Z,43.35
2023-06-17T05:54:43.750Z,42.71
2023-06-17T05:57:12.208Z,43.32
2023-06-17T05:59:38.786Z,46.92
2023-06-17T06:02:06.044Z,45.62
2023-06-17T06:04:32.593Z,45.94
2023-06-17T06:06:59.106Z,45.49
2023-06-17T06:09:25.843Z,46.89
2023-06-17T06:11:52.633Z,47.44
2023-06-17T06:14:19.567Z,46.86
2023-06-17T06:16:47.723Z,47.04
2023-06-17T06:19:15.660Z,46.53
2023-06-17T06:21:43.233Z,45.53
2023-06-17T06:24:09.820Z,45.83
2023-06-17T06:26:38.222Z,45.24
2023-06-17T06:29:05.900Z,45.39
2023-06-17T06:31:33.311Z,46.65
2023-06-17T06:34:00.700Z,47.07
2023-06-17T06:36:27.593Z,46.36
2023-06-17T06:38:54.150Z,46.00
2023-06-17T06:41:20.973Z,45.39
2023-06-17T06:43:57.017Z,45.80
2023-06-17T06:46:24.177Z,44.82
2023-06-17T06:48:50.931Z,44.32
2023-06-17T06:51:17.588Z,44.51
2023-06-17T06:53:44.226Z,45.37
2023-06-17T06:56:10.881Z,43.85
2023-06-17T06:58:39.084Z,43.79
2023-06-17T07:01:05.904Z,43.33
2023-06-17T07:03:33.469Z,43.14
2023-06-17T07:06:00.004Z,43.89
2023-06-17T07:08:27.337Z,44.16
2023-06-17T07:10:54.079Z,44.31
2023-06-17T07:13:22.365Z,44.02
2023-06-17T07:15:51.242Z,42.99
2023-06-17T07:18:19.412Z,42.74
2023-06-17T07:20:46.668Z,41.53
2023-06-17T07:23:13.320Z,42.87
2023-06-17T07:25:39.982Z,42.17
2023-06-17T07:28:08.318Z,43.08
2023-06-17T07:30:35.452Z,41.12
2023-06-17T07:33:02.116Z,41.86
2023-06-17T07:35:30.176Z,38.59
2023-06-17T07:37:57.808Z,36.90
2023-06-17T07:40:24.437Z,37.40
2023-06-17T07:42:51.069Z,37.22
2023-06-17T07:45:17.611Z,37.89
2023-06-17T07:47:44.281Z,39.21
2023-06-17T07:50:11.382Z,38.38
2023-06-17T07:52:38.355Z,37.70
2023-06-17T07:55:08.231Z,38.01
2023-06-17T07:57:35.611Z,38.02
2023-06-17T08:00:02.206Z,36.84
2023-06-17T08:02:39.002Z,37.07
2023-06-17T08:05:06.067Z,37.33
2023-06-17T08:07:32.741Z,35.96
2023-06-17T08:09:59.364Z,37.36
2023-06-17T08:12:25.956Z,36.49
2023-06-17T08:14:53.309Z,36.70
2023-06-17T08:17:19.840Z,35.95
2023-06-17T08:19:46.488Z,36.83
2023-06-17T08:22:13.031Z,37.35
2023-06-17T08:24:39.696Z,37.21
2023-06-17T08:27:07.139Z,36.75
2023-06-17T08:29:33.658Z,35.68
2023-06-17T08:32:00.466Z,36.29
2023-06-17T08:34:31.516Z,35.19
2023-06-17T08:37:04.989Z,36.29
2023-06-17T08:39:32.896Z,37.11
2023-06-17T08:42:00.380Z,35.30
2023-06-17T08:53:08.760Z,37.33
2023-06-17T08:55:36.162Z,37.59
2023-06-17T08:58:03.599Z,38.59
2023-06-17T09:00:30.253Z,38.43
2023-06-17T09:03:00.094Z,37.89
2023-06-17T09:05:27.806Z,36.79
2023-06-17T09:07:54.636Z,36.31
2023-06-17T09:10:21.366Z,35.68
2023-06-17T09:12:48.367Z,34.00
2023-06-17T09:15:17.107Z,34.71
2023-06-17T09:17:46.164Z,36.69
2023-06-17T09:20:17.700Z,36.12
2023-06-17T09:22:46.629Z,35.89
2023-06-17T09:25:15.594Z,34.03
2023-06-17T09:30:24.668Z,33.18
2023-06-17T09:32:53.274Z,35.15
2023-06-17T09:35:20.415Z,34.97
2023-06-17T09:38:02.548Z,34.19
2023-06-17T09:40:34.487Z,35.46
2023-06-17T09:43:20.837Z,35.12
2023-06-17T09:45:51.269Z,33.96
2023-06-17T09:48:18.686Z,34.13
2023-06-17T09:50:45.608Z,34.10
2023-06-17T09:53:12.853Z,33.12
2023-06-17T09:55:40.016Z,32.05
2023-06-17T09:58:08.045Z,32.02
2023-06-17T10:00:34.969Z,31.51
2023-06-17T10:03:04.352Z,30.72
2023-06-17T10:05:31.211Z,31.16
2023-06-17T10:07:58.517Z,30.93
2023-06-17T10:10:25.558Z,29.58
2023-06-17T10:12:56.022Z,31.18
2023-06-17T10:15:24.226Z,31.67
2023-06-17T10:17:52.969Z,31.60
2023-06-17T10:20:21.836Z,32.63
2023-06-17T10:22:55.618Z,32.74
2023-06-17T10:25:25.342Z,32.97
2023-06-17T10:27:52.648Z,33.04
2023-06-17T10:30:30.004Z,33.71
2023-06-17T10:32:59.623Z,34.67
2023-06-17T10:35:43.854Z,35.18
2023-06-17T10:38:17.917Z,34.66
2023-06-17T10:40:51.248Z,35.00
2023-06-17T10:43:19.662Z,34.88
2023-06-17T10:45:52.538Z,34.55
2023-06-17T10:48:28.964Z,35.57
2023-06-17T10:50:58.092Z,36.06
2023-06-17T10:53:28.151Z,36.09
2023-06-17T10:55:55.034Z,35.73
2023-06-17T10:58:21.606Z,35.90
2023-06-17T11:00:58.362Z,35.87
2023-06-17T11:03:25.548Z,35.46
2023-06-17T11:05:53.356Z,34.73
2023-06-17T11:08:20.010Z,34.29
2023-06-17T11:10:46.574Z,34.35
2023-06-17T11:13:13.898Z,34.63
2023-06-17T11:15:40.450Z,34.24
2023-06-17T11:18:09.252Z,33.10
2023-06-17T11:20:36.355Z,32.51
2023-06-17T11:23:04.769Z,32.39
2023-06-17T11:25:40.255Z,31.42
2023-06-17T11:28:11.668Z,31.66
2023-06-17T11:30:40.169Z,30.93
2023-06-17T11:33:07.902Z,30.37
2023-06-17T11:35:35.806Z,31.01
2023-06-17T11:38:03.341Z,31.17
2023-06-17T11:40:29.884Z,32.20
2023-06-17T11:42:58.605Z,32.16
2023-06-17T11:45:26.038Z,31.75
2023-06-17T11:47:52.685Z,31.64
2023-06-17T11:50:19.951Z,31.35
2023-06-17T11:52:57.545Z,31.25
2023-06-17T11:55:35.013Z,31.58
2023-06-17T11:58:04.410Z,32.44
2023-06-17T12:00:31.827Z,32.01
2023-06-17T12:02:58.728Z,32.63
2023-06-17T12:05:29.592Z,31.79
2023-06-17T12:08:02.303Z,32.34
2023-06-17T12:10:29.042Z,31.86
2023-06-17T12:12:57.444Z,31.53
2023-06-17T12:18:11.110Z,30.81
2023-06-17T12:20:38.345Z,30.30
2023-06-17T12:23:05.334Z,28.76
2023-06-17T12:25:37.682Z,29.76
2023-06-17T12:28:04.480Z,29.10
2023-06-17T12:30:35.454Z,28.22
2023-06-17T12:33:03.896Z,28.92
2023-06-17T12:35:31.849Z,29.94
2023-06-17T12:37:58.918Z,30.25
2023-06-17T12:40:26.120Z,31.39
2023-06-17T12:42:52.959Z,30.97
2023-06-17T12:45:19.817Z,30.12
2023-06-17T12:47:46.819Z,30.04
2023-06-17T12:50:13.649Z,29.30
2023-06-17T12:52:40.634Z,30.21
2023-06-17T12:55:07.493Z,29.55
2023-06-17T12:57:34.443Z,30.44
2023-06-17T13:00:05.051Z,31.00
2023-06-17T13:02:33.619Z,30.31
2023-06-17T13:05:00.578Z,30.56
2023-06-17T13:07:28.145Z,31.15
2023-06-17T13:09:56.098Z,31.81
2023-06-17T13:12:23.159Z,31.82
2023-06-17T13:14:50.503Z,31.33
2023-06-17T13:17:17.375Z,31.03
2023-06-17T13:19:43.971Z,31.61
2023-06-17T13:22:10.516Z,31.87
2023-06-17T13:24:37.452Z,31.10
2023-06-17T13:27:04.533Z,30.42
2023-06-17T13:29:31.187Z,29.75
2023-06-17T13:31:57.724Z,29.16
2023-06-17T13:34:24.412Z,28.33
2023-06-17T13:36:50.945Z,29.17
2023-06-17T13:39:17.582Z,29.57
2023-06-17T13:41:44.151Z,29.26
2023-06-17T13:44:11.047Z,27.91
2023-06-17T13:46:37.724Z,27.97
2023-06-17T13:49:04.600Z,29.57
2023-06-17T13:51:32.430Z,29.96
2023-06-17T13:54:01.827Z,30.18
2023-06-17T13:56:29.038Z,30.38
2023-06-17T13:58:56.661Z,27.82
2023-06-17T14:01:24.538Z,28.30
2023-06-17T14:03:51.714Z,27.68
2023-06-17T14:06:20.871Z,28.66
2023-06-17T14:08:47.638Z,28.71
2023-06-17T14:11:14.215Z,27.98
2023-06-17T14:13:41.804Z,28.44
2023-06-17T14:16:10.645Z,28.96
2023-06-17T14:18:37.197Z,28.53
2023-06-17T14:21:03.914Z,27.99
2023-06-17T14:23:30.527Z,27.55
2023-06-17T14:25:57.126Z,27.90
2023-06-17T14:28:23.656Z,28.09
2023-06-17T14:30:50.275Z,27.88
2023-06-17T14:33:16.816Z,28.08
2023-06-17T14:35:43.602Z,28.05
2023-06-17T14:38:10.353Z,27.96
2023-06-17T14:40:37.276Z,28.09
2023-06-17T14:43:05.236Z,27.56
2023-06-17T14:45:31.903Z,28.29
2023-06-17T14:47:58.580Z,28.51
2023-06-17T14:50:26.269Z,28.04
2023-06-17T14:52:52.836Z,28.66
2023-06-17T14:55:19.408Z,27.96
2023-06-17T14:57:46.127Z,27.42
2023-06-17T15:00:13.041Z,27.58
2023-06-17T15:03:02.878Z,26.79
2023-06-17T15:05:29.681Z,26.91
2023-06-17T15:07:56.373Z,27.09
2023-06-17T15:10:23.414Z,27.31
2023-06-17T15:12:50.279Z,28.53
2023-06-17T15:15:18.195Z,28.37
2023-06-17T15:17:45.280Z,28.72
2023-06-17T15:20:12.387Z,28.03
2023-06-17T15:22:39.480Z,27.53
2023-06-17T15:25:06.452Z,27.66
2023-06-17T15:27:33.018Z,27.93
2023-06-17T15:29:59.540Z,28.73
2023-06-17T15:32:26.172Z,28.55
2023-06-17T15:34:53.164Z,28.20
2023-06-17T15:37:19.836Z,28.82
2023-06-17T15:39:46.335Z,29.10
2023-06-17T15:42:13.040Z,28.88
2023-06-17T15:44:39.593Z,29.43
2023-06-17T15:47:06.338Z,29.11
2023-06-17T15:49:33.161Z,29.18
2023-06-17T15:51:59.696Z,29.26
2023-06-17T15:54:26.676Z,29.49
2023-06-17T15:56:53.360Z,29.97
2023-06-17T15:59:20.317Z,30.12
2023-06-17T16:01:47.291Z,30.50
2023-06-17T16:04:36.245Z,30.13
2023-06-17T16:07:13.849Z,30.28
2023-06-17T16:09:43.760Z,29.61
2023-06-17T16:12:12.785Z,29.92
2023-06-17T16:14:39.303Z,29.07
2023-06-17T16:17:07.337Z,29.57
2023-06-17T16:19:36.511Z,29.19
2023-06-17T16:22:07.343Z,29.01
2023-06-17T16:24:34.171Z,29.72
2023-06-17T16:27:01.046Z,29.59
2023-06-17T16:29:28.017Z,29.60
2023-06-17T16:31:55.107Z,30.60
2023-06-17T16:34:22.432Z,30.27
2023-06-17T16:36:49.285Z,29.92
2023-06-17T16:39:16.197Z,30.33
2023-06-17T16:41:42.805Z,30.62
2023-06-17T16:44:09.563Z,30.75
2023-06-17T16:46:36.529Z,30.66
2023-06-17T16:49:03.992Z,31.14
2023-06-17T16:51:33.104Z,31.43
2023-06-17T16:54:03.057Z,31.21
2023-06-17T16:56:31.789Z,31.10
2023-06-17T16:58:58.374Z,31.10
2023-06-17T17:01:25.024Z,31.54
2023-06-17T17:03:51.890Z,31.66
2023-06-17T17:06:18.456Z,31.70
2023-06-17T17:08:48.765Z,31.89
2023-06-17T17:11:15.547Z,31.64
2023-06-17T17:13:48.634Z,31.84
2023-06-17T17:16:16.673Z,32.07
2023-06-17T17:18:43.329Z,32.49
2023-06-17T17:21:09.999Z,32.52
2023-06-17T17:23:36.608Z,32.67
2023-06-17T17:26:03.273Z,33.52
2023-06-17T17:28:29.864Z,33.31
2023-06-17T17:30:56.826Z,33.17
2023-06-17T17:33:24.484Z,33.08
2023-06-17T17:35:51.517Z,33.22
2023-06-17T17:38:18.037Z,34.00
2023-06-17T17:40:44.550Z,33.76
2023-06-17T17:43:11.058Z,34.12
2023-06-17T17:45:37.596Z,34.40
2023-06-17T17:48:04.402Z,33.84
2023-06-17T17:50:31.164Z,34.00
2023-06-17T17:52:59.142Z,33.97
2023-06-17T17:55:25.669Z,33.97
2023-06-17T17:57:52.208Z,34.35
2023-06-17T18:00:19.340Z,34.54
2023-06-17T18:02:46.849Z,34.56
2023-06-17T18:05:13.742Z,34.90
2023-06-17T18:07:40.272Z,34.78
2023-06-17T18:10:07.341Z,34.27
2023-06-17T18:12:33.909Z,35.11
2023-06-17T18:15:00.606Z,35.33
2023-06-17T18:17:27.749Z,35.55
2023-06-17T18:19:54.472Z,35.44
2023-06-17T18:22:21.397Z,35.75
2023-06-17T18:24:47.948Z,35.83
2023-06-17T18:27:31.113Z,35.35
2023-06-17T18:30:02.801Z,35.57
2023-06-17T18:32:29.545Z,35.89
2023-06-17T18:34:56.259Z,35.58
2023-06-17T18:37:22.959Z,36.12
2023-06-17T18:39:49.504Z,35.81
2023-06-17T18:42:15.927Z,36.23
2023-06-17T18:44:44.365Z,37.24
2023-06-17T18:47:10.971Z,38.03
2023-06-17T18:49:37.670Z,37.54
2023-06-17T18:52:04.601Z,38.68
2023-06-17T18:54:31.100Z,38.86
2023-06-17T18:56:57.562Z,39.64
2023-06-17T18:59:24.102Z,39.62
2023-06-17T19:01:50.747Z,40.93
2023-06-17T19:04:17.372Z,41.19
2023-06-17T19:06:43.875Z,40.77
2023-06-17T19:09:10.810Z,41.02
2023-06-17T19:11:37.324Z,41.06
2023-06-17T19:14:03.834Z,41.05
2023-06-17T19:16:31.131Z,41.31
2023-06-17T19:18:57.733Z,41.51
2023-06-17T19:21:24.547Z,41.70
2023-06-17T19:23:51.296Z,42.43
2023-06-17T19:26:18.021Z,42.50
2023-06-17T19:28:44.540Z,43.00
2023-06-17T19:31:10.942Z,43.27
2023-06-17T19:33:37.486Z,43.94
2023-06-17T19:36:04.057Z,44.72
2023-06-17T19:38:30.583Z,44.59
2023-06-17T19:40:57.002Z,44.49
2023-06-17T19:43:24.135Z,44.46
2023-06-17T19:45:53.132Z,44.61
2023-06-17T19:48:19.761Z,44.42
2023-06-17T19:50:46.189Z,44.46
2023-06-17T19:53:12.857Z,45.69
2023-06-17T19:55:40.948Z,45.65
2023-06-17T19:58:07.556Z,45.98
2023-06-17T20:00:34.003Z,46.30
2023-06-17T20:03:01.050Z,46.35
2023-06-17T20:05:27.867Z,45.71
2023-06-17T20:07:54.411Z,46.10
2023-06-17T20:10:21.194Z,46.55
2023-06-17T20:12:47.971Z,46.72
2023-06-17T20:15:14.591Z,47.53
2023-06-17T20:17:41.682Z,46.94
2023-06-17T20:20:08.623Z,47.29
2023-06-17T20:22:35.234Z,47.18
2023-06-17T20:25:01.816Z,47.41
2023-06-17T20:27:28.237Z,48.21
2023-06-17T20:29:54.816Z,48.68
2023-06-17T20:32:21.414Z,49.30
2023-06-17T20:34:48.032Z,49.21
2023-06-17T20:37:15.080Z,49.56
2023-06-17T20:39:41.966Z,51.46
2023-06-17T20:42:08.977Z,50.72
2023-06-17T20:44:36.178Z,51.29
2023-06-17T20:47:03.227Z,51.56
2023-06-17T20:49:29.919Z,51.46
2023-06-17T20:51:56.650Z,51.70
2023-06-17T20:54:23.275Z,51.91
2023-06-17T20:56:49.788Z,51.87
2023-06-17T20:59:16.932Z,52.03
2023-06-17T21:01:43.451Z,52.86
2023-06-17T21:04:10.011Z,52.62
2023-06-17T21:06:37.504Z,52.65
2023-06-17T21:09:04.180Z,52.93
2023-06-17T21:11:30.741Z,53.48
2023-06-17T21:14:00.097Z,53.83
2023-06-17T21:16:27.670Z,53.39
2023-06-17T21:18:54.304Z,53.31
2023-06-17T21:21:26.854Z,54.75
2023-06-17T21:23:53.563Z,54.50
2023-06-17T21:26:20.194Z,54.38
2023-06-17T21:28:47.477Z,53.92
2023-06-17T21:31:14.019Z,54.02
2023-06-17T21:33:40.739Z,53.91
2023-06-17T21:36:07.723Z,54.45
2023-06-17T21:38:34.335Z,54.71
2023-06-17T21:41:01.645Z,54.71
2023-06-17T21:43:33.189Z,54.68
2023-06-17T21:46:01.052Z,55.07
2023-06-17T21:48:28.204Z,54.68
2023-06-17T21:50:54.741Z,54.96
2023-06-17T21:53:21.301Z,56.82
2023-06-17T21:55:48.042Z,57.41
2023-06-17T21:58:14.679Z,56.71
2023-06-17T22:17:21.066Z,60.96
2023-06-17T22:19:47.938Z,60.20
2023-06-17T22:22:14.473Z,59.92
2023-06-17T22:24:42.368Z,59.85
2023-06-17T22:27:12.805Z,59.77
2023-06-17T22:29:39.319Z,60.19
2023-06-17T22:32:06.192Z,60.54
2023-06-17T22:34:32.749Z,60.20
2023-06-17T22:36:59.698Z,59.75
2023-06-17T22:39:26.275Z,59.62
2023-06-17T22:41:53.834Z,59.82
2023-06-17T22:44:20.750Z,60.29
2023-06-17T22:46:47.378Z,60.25
2023-06-17T22:49:13.859Z,60.67
2023-06-17T22:51:40.415Z,60.24
2023-06-17T22:54:06.917Z,60.82
2023-06-17T22:56:33.378Z,60.59
2023-06-17T22:58:59.868Z,61.08
2023-06-17T23:01:26.344Z,61.13
2023-06-17T23:03:52.845Z,60.79
2023-06-17T23:06:19.333Z,61.65
2023-06-17T23:08:45.868Z,61.61
2023-06-17T23:11:12.330Z,62.20
2023-06-17T23:13:38.842Z,62.49
2023-06-17T23:16:05.555Z,62.20
2023-06-17T23:18:32.232Z,61.74
2023-06-17T23:20:59.079Z,62.23
2023-06-17T23:23:25.574Z,62.77
2023-06-17T23:25:52.090Z,62.64
2023-06-17T23:28:19.034Z,62.50
2023-06-17T23:30:45.695Z,63.53
2023-06-17T23:33:14.846Z,63.16
2023-06-17T23:35:42.329Z,63.41
2023-06-17T23:38:08.888Z,63.27
2023-06-17T23:40:35.346Z,63.52
2023-06-17T23:43:02.184Z,64.31
2023-06-17T23:45:28.981Z,64.22
2023-06-17T23:47:55.604Z,64.61
2023-06-17T23:50:22.907Z,64.52
2023-06-17T23:52:49.746Z,64.53
2023-06-17T23:55:16.237Z,64.69
2023-06-17T23:57:43.076Z,65.03
